createdAt,value
2017-11-15T00:03:57.182Z,1.39
2017-11-15T00:08:57.967Z,1.40
2017-11-15T00:13:58.777Z,1.32
2017-11-15T00:18:59.569Z,1.29
2017-11-15T00:24:00.400Z,1.34
2017-11-15T00:29:01.451Z,1.41
2017-11-15T00:34:02.281Z,1.41
2017-11-15T00:39:03.146Z,1.32
2017-11-15T00:44:03.943Z,1.30
2017-11-15T00:49:04.750Z,1.18
2017-11-15T00:54:05.689Z,1.14
2017-11-15T00:59:06.863Z,0.99
2017-11-15T01:04:07.658Z,1.14
2017-11-15T01:09:08.468Z,1.28
2017-11-15T01:14:09.294Z,1.29
2017-11-15T01:19:10.071Z,1.29
2017-11-15T01:24:10.869Z,1.12
2017-11-15T01:29:11.643Z,1.19
2017-11-15T01:34:19.504Z,1.29
2017-11-15T01:39:20.291Z,1.27
2017-11-15T01:44:21.111Z,1.24
2017-11-15T01:49:21.927Z,1.23
2017-11-15T01:54:22.740Z,1.03
2017-11-15T01:59:23.550Z,0.98
2017-11-15T02:04:24.347Z,1.04
2017-11-15T02:09:25.203Z,1.09
2017-11-15T02:14:26.016Z,1.10
2017-11-15T02:19:26.817Z,1.21
2017-11-15T02:24:27.623Z,1.08
2017-11-15T02:29:28.455Z,1.13
2017-11-15T02:34:29.278Z,1.14
2017-11-15T02:39:30.123Z,1.17
2017-11-15T02:44:30.966Z,1.15
2017-11-15T02:49:31.828Z,1.11
2017-11-15T02:54:32.669Z,1.16
2017-11-15T02:59:33.521Z,1.19
2017-11-15T03:04:34.330Z,1.23
2017-11-15T03:09:35.126Z,1.14
2017-11-15T03:14:35.915Z,1.21
2017-11-15T03:19:36.832Z,1.15
2017-11-15T03:24:37.693Z,1.19
2017-11-15T03:29:38.483Z,1.20
2017-11-15T03:34:39.296Z,1.20
2017-11-15T03:39:40.098Z,1.10
2017-11-15T03:44:40.908Z,1.03
2017-11-15T03:49:41.726Z,0.91
2017-11-15T03:54:42.522Z,0.92
2017-11-15T03:59:43.308Z,1.00
2017-11-15T04:04:44.155Z,0.99
2017-11-15T04:09:44.979Z,1.09
2017-11-15T04:14:45.786Z,1.02
2017-11-15T04:19:46.616Z,1.11
2017-11-15T04:24:47.431Z,1.20
2017-11-15T04:29:48.631Z,1.17
2017-11-15T04:34:49.450Z,1.24
2017-11-15T04:39:50.277Z,1.13
2017-11-15T04:44:51.094Z,1.11
2017-11-15T04:49:51.915Z,1.10
2017-11-15T04:54:52.729Z,1.13
2017-11-15T04:59:53.519Z,1.21
2017-11-15T05:04:54.313Z,1.30
2017-11-15T05:09:55.105Z,1.19
2017-11-15T05:14:55.941Z,1.10
2017-11-15T05:19:56.743Z,1.11
2017-11-15T05:24:57.581Z,1.10
2017-11-15T05:29:58.394Z,1.22
2017-11-15T05:34:59.190Z,1.29
2017-11-15T05:40:00.002Z,1.34
2017-11-15T05:45:00.813Z,1.34
2017-11-15T05:50:01.596Z,1.31
2017-11-15T05:55:02.408Z,1.32
2017-11-15T06:00:03.235Z,1.21
2017-11-15T06:05:04.080Z,1.32
2017-11-15T06:10:04.929Z,1.27
2017-11-15T06:15:05.728Z,1.25
2017-11-15T06:20:06.517Z,1.30
2017-11-15T06:25:07.441Z,1.29
2017-11-15T06:30:08.280Z,1.30
2017-11-15T06:35:09.075Z,1.36
2017-11-15T06:40:09.798Z,1.17
2017-11-15T06:45:10.603Z,1.08
2017-11-15T06:50:11.418Z,1.34
2017-11-15T06:55:12.217Z,1.38
2017-11-15T07:00:13.012Z,1.45
2017-11-15T07:05:13.814Z,1.48
2017-11-15T07:10:14.602Z,1.48
2017-11-15T07:15:15.417Z,1.50
2017-11-15T07:20:16.212Z,1.34
2017-11-15T07:25:17.018Z,1.46
2017-11-15T07:30:24.357Z,1.44
2017-11-15T07:35:25.155Z,1.72
2017-11-15T07:40:25.970Z,1.93
2017-11-15T07:45:26.757Z,1.89
2017-11-15T07:50:27.568Z,1.90
2017-11-15T07:55:28.364Z,2.10
2017-11-15T08:00:29.204Z,2.41
2017-11-15T08:05:37.131Z,2.16
2017-11-15T08:10:37.946Z,2.37
2017-11-15T08:15:38.805Z,2.43
2017-11-15T08:20:39.664Z,2.21
2017-11-15T08:25:40.495Z,2.16
2017-11-15T08:30:41.310Z,2.29
2017-11-15T08:35:42.107Z,2.28
2017-11-15T08:40:42.913Z,2.44
2017-11-15T08:45:43.705Z,2.42
2017-11-15T08:50:44.522Z,2.23
2017-11-15T08:55:45.356Z,2.09
2017-11-15T09:00:46.199Z,2.30
2017-11-15T09:05:46.974Z,2.45
2017-11-15T09:10:47.794Z,2.57
2017-11-15T09:15:52.331Z,2.59
2017-11-15T09:20:56.380Z,2.51
2017-11-15T09:25:57.201Z,2.56
2017-11-15T09:31:05.875Z,2.26
2017-11-15T09:36:06.717Z,2.42
2017-11-15T09:41:07.569Z,2.19
2017-11-15T09:46:11.483Z,2.29
2017-11-15T09:51:12.303Z,2.46
2017-11-15T09:56:13.099Z,2.41
2017-11-15T10:01:13.900Z,2.44
2017-11-15T10:06:18.403Z,2.49
2017-11-15T10:11:19.198Z,2.42
2017-11-15T10:16:19.968Z,2.55
2017-11-15T10:21:20.759Z,2.66
2017-11-15T10:26:21.575Z,2.53
2017-11-15T10:31:22.394Z,2.43
2017-11-15T10:36:28.489Z,2.81
2017-11-15T10:41:29.283Z,3.09
2017-11-15T10:46:30.071Z,2.50
2017-11-15T10:51:34.477Z,2.45
2017-11-15T10:56:35.287Z,2.13
2017-11-15T11:01:36.088Z,2.40
2017-11-15T11:06:36.918Z,2.63
2017-11-15T11:11:37.719Z,2.65
2017-11-15T11:16:39.515Z,2.50
2017-11-15T11:21:40.363Z,2.37
2017-11-15T11:26:45.182Z,2.81
2017-11-15T11:31:46.012Z,2.94
2017-11-15T11:36:46.850Z,2.87
2017-11-15T11:41:47.649Z,2.75
2017-11-15T11:46:48.459Z,3.18
2017-11-15T11:51:52.928Z,3.20
2017-11-15T11:56:53.731Z,2.93
2017-11-15T12:01:54.511Z,2.89
2017-11-15T12:06:56.340Z,3.00
2017-11-15T12:11:57.156Z,3.13
2017-11-15T12:16:57.950Z,3.12
2017-11-15T12:22:02.190Z,3.22
2017-11-15T12:27:03.014Z,3.40
2017-11-15T12:32:03.802Z,3.33
2017-11-15T12:37:04.597Z,3.37
2017-11-15T12:42:05.420Z,3.24
2017-11-15T12:47:06.267Z,3.20
2017-11-15T12:52:07.108Z,3.39
2017-11-15T12:57:11.486Z,3.19
2017-11-15T13:02:12.292Z,3.21
2017-11-15T13:07:13.078Z,3.30
2017-11-15T13:12:13.892Z,3.02
2017-11-15T13:17:14.710Z,2.66
2017-11-15T13:22:15.519Z,3.22
2017-11-15T13:27:16.340Z,3.30
2017-11-15T13:32:17.149Z,3.15
2017-11-15T13:37:17.974Z,3.15
2017-11-15T13:42:18.765Z,3.07
2017-11-15T13:47:19.577Z,3.00
2017-11-15T13:52:20.375Z,2.91
2017-11-15T13:57:21.181Z,3.12
2017-11-15T14:02:21.975Z,2.98
2017-11-15T14:07:22.785Z,2.94
2017-11-15T14:12:23.594Z,3.07
2017-11-15T14:17:25.174Z,2.97
2017-11-15T14:22:25.983Z,2.86
2017-11-15T14:27:26.762Z,2.72
2017-11-15T14:32:27.564Z,2.58
2017-11-15T14:37:28.355Z,2.69
2017-11-15T14:42:29.160Z,2.54
2017-11-15T14:47:29.926Z,2.52
2017-11-15T14:52:30.743Z,2.34
2017-11-15T14:57:31.520Z,2.45
2017-11-15T15:02:35.759Z,2.43
2017-11-15T15:07:36.624Z,2.35
2017-11-15T15:12:37.436Z,2.28
2017-11-15T15:17:38.241Z,2.04
2017-11-15T15:22:39.025Z,2.08
2017-11-15T15:27:40.700Z,1.95
2017-11-15T15:32:41.487Z,1.95
2017-11-15T15:37:42.285Z,1.93
2017-11-15T15:42:43.071Z,1.98
2017-11-15T15:47:47.374Z,1.93
2017-11-15T15:52:48.173Z,1.84
2017-11-15T15:57:48.972Z,1.86
2017-11-15T16:02:56.731Z,1.81
2017-11-15T16:07:57.531Z,1.87
2017-11-15T16:13:00.323Z,1.89
2017-11-15T16:18:01.105Z,1.98
2017-11-15T16:23:01.892Z,1.93
2017-11-15T16:28:02.683Z,2.03
2017-11-15T16:33:03.486Z,2.08
2017-11-15T16:38:04.255Z,1.93
2017-11-15T16:43:05.046Z,1.99
2017-11-15T16:48:05.818Z,2.12
2017-11-15T16:53:06.623Z,2.12
2017-11-15T16:58:07.424Z,2.09
2017-11-15T17:03:08.201Z,2.12
2017-11-15T17:08:09.017Z,2.17
2017-11-15T17:13:09.789Z,2.25
2017-11-15T17:18:12.611Z,2.28
2017-11-15T17:23:13.420Z,2.32
2017-11-15T17:28:18.299Z,2.31
2017-11-15T17:33:19.127Z,2.41
2017-11-15T17:38:19.939Z,2.34
2017-11-15T17:43:22.741Z,2.35
2017-11-15T17:48:23.611Z,2.33
2017-11-15T17:53:24.433Z,2.30
2017-11-15T17:58:25.223Z,2.35
2017-11-15T18:03:28.011Z,2.20
2017-11-15T18:08:30.806Z,2.23
2017-11-15T18:13:31.579Z,2.16
2017-11-15T18:18:32.399Z,2.20
2017-11-15T18:23:44.176Z,2.07
2017-11-15T18:28:48.467Z,2.06
2017-11-15T18:33:49.258Z,2.09
2017-11-15T18:38:50.071Z,2.03
2017-11-15T18:43:50.846Z,2.12
2017-11-15T18:48:51.626Z,2.20
2017-11-15T18:53:52.410Z,2.16
2017-11-15T18:58:53.199Z,2.08
2017-11-15T19:03:54.008Z,1.98
2017-11-15T19:08:58.012Z,2.00
2017-11-15T19:14:05.903Z,2.01
2017-11-15T19:19:10.057Z,1.87
2017-11-15T19:24:14.094Z,1.82
2017-11-15T19:29:14.930Z,1.84
2017-11-15T19:34:22.348Z,1.91
2017-11-15T19:39:23.169Z,1.97
2017-11-15T19:44:23.997Z,2.01
2017-11-15T19:49:24.807Z,2.01
2017-11-15T19:54:25.598Z,2.05
2017-11-15T19:59:26.363Z,1.99
2017-11-15T20:04:30.275Z,2.07
2017-11-15T20:09:31.078Z,2.11
2017-11-15T20:14:42.403Z,2.11
2017-11-15T20:19:43.175Z,2.13
2017-11-15T20:24:43.955Z,2.25
2017-11-15T20:29:44.861Z,2.23
2017-11-15T20:34:45.675Z,2.19
2017-11-15T20:39:52.513Z,2.12
2017-11-15T20:44:53.292Z,2.16
2017-11-15T20:50:02.921Z,2.18
2017-11-15T20:55:03.730Z,2.27
2017-11-15T21:00:07.602Z,2.27
2017-11-15T21:05:08.390Z,2.28
2017-11-15T21:10:09.158Z,2.18
2017-11-15T21:15:14.744Z,2.19
2017-11-15T21:20:15.547Z,2.10
2017-11-15T21:25:16.335Z,2.18
2017-11-15T21:30:17.134Z,2.12
2017-11-15T21:35:17.938Z,2.17
2017-11-15T21:40:18.720Z,2.08
2017-11-15T21:45:22.596Z,2.09
2017-11-15T21:50:23.383Z,2.12
2017-11-15T21:55:25.131Z,2.13
2017-11-15T22:00:25.924Z,2.12
2017-11-15T22:05:26.702Z,2.10
2017-11-15T22:10:27.486Z,2.18
2017-11-15T22:15:28.261Z,2.09
2017-11-15T22:20:29.048Z,2.15
2017-11-15T22:25:29.813Z,2.19
2017-11-15T22:30:30.599Z,2.21
2017-11-15T22:35:31.371Z,2.11
2017-11-15T22:40:32.150Z,2.13
2017-11-15T22:45:32.947Z,2.07
2017-11-15T22:50:33.778Z,2.17
2017-11-15T22:55:34.568Z,2.15
2017-11-15T23:00:42.230Z,2.23
2017-11-15T23:05:43.031Z,2.27
2017-11-15T23:10:43.803Z,2.31
2017-11-15T23:15:44.582Z,2.20
2017-11-15T23:20:45.378Z,2.22
2017-11-15T23:25:46.166Z,2.25
2017-11-15T23:30:46.946Z,2.20
2017-11-15T23:35:54.156Z,2.13
2017-11-15T23:40:54.962Z,2.24
2017-11-15T23:45:55.750Z,2.18
2017-11-15T23:50:56.531Z,2.28
2017-11-15T23:56:04.403Z,2.21
